sensor_id;sensor_type;location;lat;lon;timestamp;P1;durP1;ratioP1;P2;durP2;ratioP2
65073;SDS011;52218;51.224;-2.328;2023-02-12T00:00:27;8.43;;;5.53;;
65073;SDS011;52218;51.224;-2.328;2023-02-12T00:04:09;7.63;;;6.03;;
65073;SDS011;52218;51.224;-2.328;2023-02-12T00:07:51;9.88;;;6.20;;
65073;SDS011;52218;51.224;-2.328;2023-02-12T00:11:34;6.68;;;5.93;;
65073;SDS011;52218;51.224;-2.328;2023-02-12T00:15:16;9.18;;;6.28;;
65073;SDS011;52218;51.224;-2.328;2023-02-12T00:18:58;8.55;;;6.22;;
65073;SDS011;52218;51.224;-2.328;2023-02-12T00:22:41;8.77;;;6.10;;
65073;SDS011;52218;51.224;-2.328;2023-02-12T00:26:23;8.43;;;6.38;;
65073;SDS011;52218;51.224;-2.328;2023-02-12T00:30:05;8.00;;;6.38;;
65073;SDS011;52218;51.224;-2.328;2023-02-12T00:33:48;8.75;;;6.20;;
65073;SDS011;52218;51.224;-2.328;2023-02-12T00:37:30;8.25;;;6.38;;
65073;SDS011;52218;51.224;-2.328;2023-02-12T00:41:13;8.93;;;6.63;;
65073;SDS011;52218;51.224;-2.328;2023-02-12T00:44:55;8.07;;;6.32;;
65073;SDS011;52218;51.224;-2.328;2023-02-12T00:48:37;10.38;;;6.10;;
65073;SDS011;52218;51.224;-2.328;2023-02-12T00:52:19;6.97;;;6.18;;
65073;SDS011;52218;51.224;-2.328;2023-02-12T00:56:01;9.13;;;6.60;;
65073;SDS011;52218;51.224;-2.328;2023-02-12T00:59:43;9.15;;;6.75;;
65073;SDS011;52218;51.224;-2.328;2023-02-12T01:03:25;7.78;;;6.22;;
65073;SDS011;52218;51.224;-2.328;2023-02-12T01:07:07;7.53;;;5.90;;
65073;SDS011;52218;51.224;-2.328;2023-02-12T01:10:54;8.95;;;6.45;;
65073;SDS011;52218;51.224;-2.328;2023-02-12T01:14:41;9.25;;;6.50;;
65073;SDS011;52218;51.224;-2.328;2023-02-12T01:18:23;8.65;;;6.22;;
65073;SDS011;52218;51.224;-2.328;2023-02-12T01:22:05;8.23;;;6.25;;
65073;SDS011;52218;51.224;-2.328;2023-02-12T01:25:47;7.95;;;6.82;;
65073;SDS011;52218;51.224;-2.328;2023-02-12T01:29:29;10.68;;;6.25;;
65073;SDS011;52218;51.224;-2.328;2023-02-12T01:33:11;8.13;;;6.47;;
65073;SDS011;52218;51.224;-2.328;2023-02-12T01:36:53;7.88;;;6.22;;
65073;SDS011;52218;51.224;-2.328;2023-02-12T01:40:35;9.80;;;6.82;;
65073;SDS011;52218;51.224;-2.328;2023-02-12T01:44:21;9.25;;;6.72;;
65073;SDS011;52218;51.224;-2.328;2023-02-12T01:48:06;9.98;;;7.68;;
65073;SDS011;52218;51.224;-2.328;2023-02-12T01:51:49;10.85;;;8.07;;
65073;SDS011;52218;51.224;-2.328;2023-02-12T01:55:35;11.52;;;8.80;;
65073;SDS011;52218;51.224;-2.328;2023-02-12T01:59:17;9.70;;;7.57;;
65073;SDS011;52218;51.224;-2.328;2023-02-12T02:03:01;11.20;;;7.97;;
65073;SDS011;52218;51.224;-2.328;2023-02-12T02:07:05;10.60;;;8.50;;
65073;SDS011;52218;51.224;-2.328;2023-02-12T02:10:46;9.23;;;7.63;;
65073;SDS011;52218;51.224;-2.328;2023-02-12T02:14:28;9.30;;;7.72;;
65073;SDS011;52218;51.224;-2.328;2023-02-12T02:45:41;10.02;;;7.38;;
65073;SDS011;52218;51.224;-2.328;2023-02-12T02:49:24;9.48;;;7.65;;
65073;SDS011;52218;51.224;-2.328;2023-02-12T02:53:24;9.93;;;8.00;;
65073;SDS011;52218;51.224;-2.328;2023-02-12T02:57:21;10.15;;;7.38;;
65073;SDS011;52218;51.224;-2.328;2023-02-12T03:01:08;11.23;;;7.65;;
65073;SDS011;52218;51.224;-2.328;2023-02-12T03:05:41;9.93;;;7.45;;
65073;SDS011;52218;51.224;-2.328;2023-02-12T03:09:14;8.93;;;7.25;;
65073;SDS011;52218;51.224;-2.328;2023-02-12T03:13:44;10.43;;;7.30;;
65073;SDS011;52218;51.224;-2.328;2023-02-12T03:17:21;8.77;;;6.68;;
65073;SDS011;52218;51.224;-2.328;2023-02-12T03:21:13;9.05;;;6.85;;
65073;SDS011;52218;51.224;-2.328;2023-02-12T03:28:50;11.95;;;7.00;;
65073;SDS011;52218;51.224;-2.328;2023-02-12T03:32:34;8.80;;;7.03;;
65073;SDS011;52218;51.224;-2.328;2023-02-12T03:36:51;10.93;;;7.47;;
65073;SDS011;52218;51.224;-2.328;2023-02-12T03:40:48;9.70;;;6.53;;
65073;SDS011;52218;51.224;-2.328;2023-02-12T03:52:48;9.55;;;6.80;;
65073;SDS011;52218;51.224;-2.328;2023-02-12T03:56:32;9.23;;;7.10;;
65073;SDS011;52218;51.224;-2.328;2023-02-12T04:00:19;7.90;;;6.70;;
65073;SDS011;52218;51.224;-2.328;2023-02-12T04:04:04;9.88;;;6.65;;
65073;SDS011;52218;51.224;-2.328;2023-02-12T04:07:48;9.65;;;6.18;;
65073;SDS011;52218;51.224;-2.328;2023-02-12T04:16:19;8.70;;;6.35;;
65073;SDS011;52218;51.224;-2.328;2023-02-12T04:28:09;7.72;;;5.93;;
65073;SDS011;52218;51.224;-2.328;2023-02-12T04:32:11;7.68;;;5.90;;
65073;SDS011;52218;51.224;-2.328;2023-02-12T04:36:10;7.63;;;5.97;;
65073;SDS011;52218;51.224;-2.328;2023-02-12T04:40:01;7.30;;;6.57;;
65073;SDS011;52218;51.224;-2.328;2023-02-12T04:43:46;9.98;;;6.55;;
65073;SDS011;52218;51.224;-2.328;2023-02-12T04:47:28;8.23;;;6.60;;
65073;SDS011;52218;51.224;-2.328;2023-02-12T04:51:10;7.75;;;6.45;;
65073;SDS011;52218;51.224;-2.328;2023-02-12T04:54:52;8.43;;;6.43;;
65073;SDS011;52218;51.224;-2.328;2023-02-12T04:58:34;9.15;;;6.75;;
65073;SDS011;52218;51.224;-2.328;2023-02-12T05:02:18;7.72;;;6.32;;
65073;SDS011;52218;51.224;-2.328;2023-02-12T05:06:03;7.70;;;6.00;;
65073;SDS011;52218;51.224;-2.328;2023-02-12T05:09:49;7.95;;;6.05;;
65073;SDS011;52218;51.224;-2.328;2023-02-12T05:13:31;8.95;;;6.35;;
65073;SDS011;52218;51.224;-2.328;2023-02-12T05:17:13;7.45;;;6.25;;
65073;SDS011;52218;51.224;-2.328;2023-02-12T05:20:55;10.07;;;6.40;;
65073;SDS011;52218;51.224;-2.328;2023-02-12T05:24:38;8.90;;;6.57;;
65073;SDS011;52218;51.224;-2.328;2023-02-12T05:28:20;9.32;;;7.05;;
65073;SDS011;52218;51.224;-2.328;2023-02-12T05:32:03;7.55;;;6.57;;
65073;SDS011;52218;51.224;-2.328;2023-02-12T05:35:45;8.32;;;6.32;;
65073;SDS011;52218;51.224;-2.328;2023-02-12T05:39:27;7.78;;;6.43;;
65073;SDS011;52218;51.224;-2.328;2023-02-12T05:43:09;10.07;;;6.82;;
65073;SDS011;52218;51.224;-2.328;2023-02-12T05:46:51;10.13;;;6.85;;
65073;SDS011;52218;51.224;-2.328;2023-02-12T05:50:33;8.88;;;6.63;;
65073;SDS011;52218;51.224;-2.328;2023-02-12T05:54:15;8.70;;;7.20;;
65073;SDS011;52218;51.224;-2.328;2023-02-12T05:57:57;10.10;;;6.97;;
65073;SDS011;52218;51.224;-2.328;2023-02-12T06:01:41;8.55;;;7.30;;
65073;SDS011;52218;51.224;-2.328;2023-02-12T06:05:24;9.65;;;7.18;;
65073;SDS011;52218;51.224;-2.328;2023-02-12T06:09:06;9.88;;;7.13;;
65073;SDS011;52218;51.224;-2.328;2023-02-12T06:12:52;11.38;;;7.35;;
65073;SDS011;52218;51.224;-2.328;2023-02-12T06:16:35;10.95;;;7.45;;
65073;SDS011;52218;51.224;-2.328;2023-02-12T06:20:17;8.75;;;6.75;;
65073;SDS011;52218;51.224;-2.328;2023-02-12T06:23:59;8.40;;;6.43;;
65073;SDS011;52218;51.224;-2.328;2023-02-12T06:27:41;8.93;;;6.95;;
65073;SDS011;52218;51.224;-2.328;2023-02-12T06:35:05;10.30;;;6.90;;
65073;SDS011;52218;51.224;-2.328;2023-02-12T06:38:48;9.50;;;6.80;;
65073;SDS011;52218;51.224;-2.328;2023-02-12T06:42:30;7.75;;;6.47;;
65073;SDS011;52218;51.224;-2.328;2023-02-12T06:46:13;8.82;;;6.63;;
65073;SDS011;52218;51.224;-2.328;2023-02-12T06:49:55;9.05;;;6.15;;
65073;SDS011;52218;51.224;-2.328;2023-02-12T06:53:37;9.50;;;6.70;;
65073;SDS011;52218;51.224;-2.328;2023-02-12T06:57:20;7.55;;;6.63;;
65073;SDS011;52218;51.224;-2.328;2023-02-12T07:04:58;10.38;;;6.78;;
65073;SDS011;52218;51.224;-2.328;2023-02-12T07:08:40;8.60;;;6.88;;
65073;SDS011;52218;51.224;-2.328;2023-02-12T07:12:22;7.47;;;6.05;;
65073;SDS011;52218;51.224;-2.328;2023-02-12T07:16:05;6.97;;;6.25;;
65073;SDS011;52218;51.224;-2.328;2023-02-12T07:19:48;8.10;;;6.10;;
65073;SDS011;52218;51.224;-2.328;2023-02-12T07:23:30;7.28;;;5.78;;
65073;SDS011;52218;51.224;-2.328;2023-02-12T07:27:13;7.55;;;5.45;;
65073;SDS011;52218;51.224;-2.328;2023-02-12T07:30:55;7.13;;;5.90;;
65073;SDS011;52218;51.224;-2.328;2023-02-12T07:34:37;7.80;;;5.28;;
65073;SDS011;52218;51.224;-2.328;2023-02-12T07:38:19;6.88;;;5.55;;
65073;SDS011;52218;51.224;-2.328;2023-02-12T07:42:01;6.28;;;5.28;;
65073;SDS011;52218;51.224;-2.328;2023-02-12T07:45:43;6.28;;;4.93;;
65073;SDS011;52218;51.224;-2.328;2023-02-12T07:49:25;6.05;;;4.85;;
65073;SDS011;52218;51.224;-2.328;2023-02-12T07:53:07;6.70;;;4.53;;
65073;SDS011;52218;51.224;-2.328;2023-02-12T07:56:49;6.15;;;4.25;;
65073;SDS011;52218;51.224;-2.328;2023-02-12T08:00:33;6.53;;;4.65;;
65073;SDS011;52218;51.224;-2.328;2023-02-12T08:04:16;6.72;;;4.55;;
65073;SDS011;52218;51.224;-2.328;2023-02-12T08:08:02;5.93;;;4.55;;
65073;SDS011;52218;51.224;-2.328;2023-02-12T08:11:44;5.53;;;4.32;;
65073;SDS011;52218;51.224;-2.328;2023-02-12T08:15:26;6.45;;;3.88;;
65073;SDS011;52218;51.224;-2.328;2023-02-12T08:19:09;6.45;;;4.15;;
65073;SDS011;52218;51.224;-2.328;2023-02-12T08:22:59;5.28;;;4.25;;
65073;SDS011;52218;51.224;-2.328;2023-02-12T08:26:41;5.47;;;4.00;;
65073;SDS011;52218;51.224;-2.328;2023-02-12T08:30:24;4.18;;;3.40;;
65073;SDS011;52218;51.224;-2.328;2023-02-12T08:34:09;5.40;;;3.78;;
65073;SDS011;52218;51.224;-2.328;2023-02-12T08:37:57;7.07;;;3.90;;
65073;SDS011;52218;51.224;-2.328;2023-02-12T08:41:39;5.88;;;3.60;;
65073;SDS011;52218;51.224;-2.328;2023-02-12T08:45:22;4.60;;;3.63;;
65073;SDS011;52218;51.224;-2.328;2023-02-12T08:49:10;4.97;;;3.40;;
65073;SDS011;52218;51.224;-2.328;2023-02-12T08:52:53;4.20;;;3.30;;
65073;SDS011;52218;51.224;-2.328;2023-02-12T08:56:35;4.05;;;3.47;;
65073;SDS011;52218;51.224;-2.328;2023-02-12T09:00:18;5.30;;;3.17;;
65073;SDS011;52218;51.224;-2.328;2023-02-12T09:04:00;5.00;;;3.55;;
65073;SDS011;52218;51.224;-2.328;2023-02-12T09:07:42;4.50;;;2.95;;
65073;SDS011;52218;51.224;-2.328;2023-02-12T09:11:25;3.47;;;2.65;;
65073;SDS011;52218;51.224;-2.328;2023-02-12T09:15:11;3.70;;;2.83;;
65073;SDS011;52218;51.224;-2.328;2023-02-12T09:18:53;4.03;;;3.03;;
65073;SDS011;52218;51.224;-2.328;2023-02-12T09:22:36;4.75;;;3.10;;
65073;SDS011;52218;51.224;-2.328;2023-02-12T09:26:20;4.28;;;3.13;;
65073;SDS011;52218;51.224;-2.328;2023-02-12T09:30:03;5.15;;;3.17;;
65073;SDS011;52218;51.224;-2.328;2023-02-12T09:33:45;4.68;;;3.00;;
65073;SDS011;52218;51.224;-2.328;2023-02-12T09:37:32;4.95;;;3.55;;
65073;SDS011;52218;51.224;-2.328;2023-02-12T09:41:28;5.22;;;3.50;;
65073;SDS011;52218;51.224;-2.328;2023-02-12T09:45:19;3.60;;;3.00;;
65073;SDS011;52218;51.224;-2.328;2023-02-12T09:49:11;4.30;;;3.30;;
65073;SDS011;52218;51.224;-2.328;2023-02-12T09:53:04;4.10;;;3.35;;
65073;SDS011;52218;51.224;-2.328;2023-02-12T09:56:48;3.75;;;3.30;;
65073;SDS011;52218;51.224;-2.328;2023-02-12T10:00:35;8.25;;;3.67;;
65073;SDS011;52218;51.224;-2.328;2023-02-12T10:04:25;5.38;;;3.50;;
65073;SDS011;52218;51.224;-2.328;2023-02-12T10:20:53;4.32;;;3.05;;
65073;SDS011;52218;51.224;-2.328;2023-02-12T10:24:51;3.97;;;3.00;;
65073;SDS011;52218;51.224;-2.328;2023-02-12T10:28:49;4.43;;;3.00;;
65073;SDS011;52218;51.224;-2.328;2023-02-12T10:32:33;4.68;;;3.20;;
65073;SDS011;52218;51.224;-2.328;2023-02-12T10:40:24;3.70;;;2.88;;
65073;SDS011;52218;51.224;-2.328;2023-02-12T10:44:10;4.07;;;2.80;;
65073;SDS011;52218;51.224;-2.328;2023-02-12T10:47:53;3.50;;;2.90;;
65073;SDS011;52218;51.224;-2.328;2023-02-12T10:59:56;3.45;;;2.80;;
65073;SDS011;52218;51.224;-2.328;2023-02-12T11:03:56;3.28;;;2.53;;
65073;SDS011;52218;51.224;-2.328;2023-02-12T11:07:47;2.90;;;2.60;;
65073;SDS011;52218;51.224;-2.328;2023-02-12T11:11:32;5.00;;;3.42;;
65073;SDS011;52218;51.224;-2.328;2023-02-12T11:15:19;6.18;;;2.90;;
65073;SDS011;52218;51.224;-2.328;2023-02-12T11:19:05;3.10;;;2.80;;
65073;SDS011;52218;51.224;-2.328;2023-02-12T11:22:59;3.47;;;2.75;;
65073;SDS011;52218;51.224;-2.328;2023-02-12T11:26:43;3.03;;;2.53;;
65073;SDS011;52218;51.224;-2.328;2023-02-12T11:30:25;3.78;;;2.92;;
65073;SDS011;52218;51.224;-2.328;2023-02-12T11:34:15;3.85;;;3.10;;
65073;SDS011;52218;51.224;-2.328;2023-02-12T11:38:00;4.20;;;2.92;;
65073;SDS011;52218;51.224;-2.328;2023-02-12T11:41:43;3.40;;;3.10;;
65073;SDS011;52218;51.224;-2.328;2023-02-12T11:45:34;3.10;;;2.63;;
65073;SDS011;52218;51.224;-2.328;2023-02-12T11:49:30;3.33;;;2.80;;
65073;SDS011;52218;51.224;-2.328;2023-02-12T11:53:19;3.97;;;3.10;;
65073;SDS011;52218;51.224;-2.328;2023-02-12T11:57:33;3.65;;;2.97;;
65073;SDS011;52218;51.224;-2.328;2023-02-12T12:01:21;3.30;;;2.95;;
65073;SDS011;52218;51.224;-2.328;2023-02-12T12:05:15;3.45;;;3.15;;
65073;SDS011;52218;51.224;-2.328;2023-02-12T12:09:05;5.90;;;3.22;;
65073;SDS011;52218;51.224;-2.328;2023-02-12T12:12:56;3.50;;;2.75;;
65073;SDS011;52218;51.224;-2.328;2023-02-12T12:16:47;3.67;;;3.00;;
65073;SDS011;52218;51.224;-2.328;2023-02-12T12:21:02;4.25;;;3.20;;
65073;SDS011;52218;51.224;-2.328;2023-02-12T12:24:56;3.47;;;3.17;;
65073;SDS011;52218;51.224;-2.328;2023-02-12T12:29:21;5.00;;;3.57;;
65073;SDS011;52218;51.224;-2.328;2023-02-12T12:33:05;4.93;;;3.92;;
65073;SDS011;52218;51.224;-2.328;2023-02-12T12:57:04;3.85;;;2.55;;
65073;SDS011;52218;51.224;-2.328;2023-02-12T13:09:10;3.97;;;3.15;;
65073;SDS011;52218;51.224;-2.328;2023-02-12T13:17:29;4.10;;;3.35;;
65073;SDS011;52218;51.224;-2.328;2023-02-12T13:29:12;5.90;;;3.78;;
65073;SDS011;52218;51.224;-2.328;2023-02-12T13:33:19;6.25;;;3.47;;
65073;SDS011;52218;51.224;-2.328;2023-02-12T13:37:10;5.07;;;3.20;;
65073;SDS011;52218;51.224;-2.328;2023-02-12T13:40:59;4.63;;;3.10;;
65073;SDS011;52218;51.224;-2.328;2023-02-12T13:44:56;3.58;;;3.22;;
65073;SDS011;52218;51.224;-2.328;2023-02-12T13:57:07;3.28;;;2.97;;
65073;SDS011;52218;51.224;-2.328;2023-02-12T14:01:03;3.88;;;3.10;;
65073;SDS011;52218;51.224;-2.328;2023-02-12T14:04:45;3.63;;;3.00;;
65073;SDS011;52218;51.224;-2.328;2023-02-12T14:08:35;3.45;;;3.13;;
65073;SDS011;52218;51.224;-2.328;2023-02-12T14:20:31;4.00;;;2.90;;
65073;SDS011;52218;51.224;-2.328;2023-02-12T14:32:21;4.70;;;3.70;;
65073;SDS011;52218;51.224;-2.328;2023-02-12T14:47:58;4.75;;;3.45;;
65073;SDS011;52218;51.224;-2.328;2023-02-12T14:55:47;4.20;;;3.30;;
65073;SDS011;52218;51.224;-2.328;2023-02-12T14:59:32;4.28;;;3.70;;
65073;SDS011;52218;51.224;-2.328;2023-02-12T15:03:21;4.88;;;3.72;;
65073;SDS011;52218;51.224;-2.328;2023-02-12T15:07:31;5.18;;;3.53;;
65073;SDS011;52218;51.224;-2.328;2023-02-12T15:15:33;4.43;;;3.42;;
65073;SDS011;52218;51.224;-2.328;2023-02-12T15:23:31;3.83;;;2.92;;
65073;SDS011;52218;51.224;-2.328;2023-02-12T15:27:19;3.00;;;2.58;;
65073;SDS011;52218;51.224;-2.328;2023-02-12T15:31:02;3.40;;;2.60;;
65073;SDS011;52218;51.224;-2.328;2023-02-12T15:34:50;2.35;;;1.70;;
65073;SDS011;52218;51.224;-2.328;2023-02-12T15:38:34;2.85;;;1.65;;
65073;SDS011;52218;51.224;-2.328;2023-02-12T15:42:29;2.58;;;1.73;;
65073;SDS011;52218;51.224;-2.328;2023-02-12T15:46:18;1.92;;;1.40;;
65073;SDS011;52218;51.224;-2.328;2023-02-12T15:50:00;1.80;;;1.42;;
65073;SDS011;52218;51.224;-2.328;2023-02-12T15:53:42;2.53;;;1.63;;
65073;SDS011;52218;51.224;-2.328;2023-02-12T15:57:25;1.40;;;1.30;;
65073;SDS011;52218;51.224;-2.328;2023-02-12T16:01:12;1.30;;;0.90;;
65073;SDS011;52218;51.224;-2.328;2023-02-12T16:04:58;1.88;;;1.00;;
65073;SDS011;52218;51.224;-2.328;2023-02-12T16:08:46;1.83;;;0.95;;
65073;SDS011;52218;51.224;-2.328;2023-02-12T16:12:34;1.80;;;0.95;;
65073;SDS011;52218;51.224;-2.328;2023-02-12T16:16:24;1.65;;;1.08;;
65073;SDS011;52218;51.224;-2.328;2023-02-12T16:23:59;2.80;;;1.60;;
65073;SDS011;52218;51.224;-2.328;2023-02-12T16:27:42;1.73;;;1.50;;
65073;SDS011;52218;51.224;-2.328;2023-02-12T16:31:50;1.80;;;1.50;;
65073;SDS011;52218;51.224;-2.328;2023-02-12T16:35:34;2.80;;;2.00;;
65073;SDS011;52218;51.224;-2.328;2023-02-12T16:39:47;2.40;;;1.90;;
65073;SDS011;52218;51.224;-2.328;2023-02-12T16:43:33;2.80;;;1.80;;
65073;SDS011;52218;51.224;-2.328;2023-02-12T16:47:19;2.70;;;2.08;;
65073;SDS011;52218;51.224;-2.328;2023-02-12T16:51:04;2.75;;;2.15;;
65073;SDS011;52218;51.224;-2.328;2023-02-12T16:54:46;2.75;;;2.20;;
65073;SDS011;52218;51.224;-2.328;2023-02-12T16:58:28;2.28;;;2.08;;
65073;SDS011;52218;51.224;-2.328;2023-02-12T17:02:14;3.40;;;2.40;;
65073;SDS011;52218;51.224;-2.328;2023-02-12T17:05:56;4.35;;;2.33;;
65073;SDS011;52218;51.224;-2.328;2023-02-12T17:09:38;2.60;;;2.00;;
65073;SDS011;52218;51.224;-2.328;2023-02-12T17:13:20;2.72;;;1.90;;
65073;SDS011;52218;51.224;-2.328;2023-02-12T17:17:02;2.60;;;2.00;;
65073;SDS011;52218;51.224;-2.328;2023-02-12T17:20:55;1.98;;;1.77;;
65073;SDS011;52218;51.224;-2.328;2023-02-12T17:24:40;2.13;;;1.92;;
65073;SDS011;52218;51.224;-2.328;2023-02-12T17:28:22;3.65;;;2.38;;
65073;SDS011;52218;51.224;-2.328;2023-02-12T17:32:05;3.22;;;2.63;;
65073;SDS011;52218;51.224;-2.328;2023-02-12T17:35:49;3.58;;;2.80;;
65073;SDS011;52218;51.224;-2.328;2023-02-12T17:39:31;4.22;;;2.97;;
65073;SDS011;52218;51.224;-2.328;2023-02-12T17:43:13;3.17;;;2.83;;
65073;SDS011;52218;51.224;-2.328;2023-02-12T17:46:55;3.70;;;2.70;;
65073;SDS011;52218;51.224;-2.328;2023-02-12T17:50:39;3.45;;;2.85;;
65073;SDS011;52218;51.224;-2.328;2023-02-12T17:54:21;3.92;;;3.25;;
65073;SDS011;52218;51.224;-2.328;2023-02-12T17:58:03;3.75;;;2.83;;
65073;SDS011;52218;51.224;-2.328;2023-02-12T18:01:46;5.22;;;3.25;;
65073;SDS011;52218;51.224;-2.328;2023-02-12T18:05:28;3.38;;;2.92;;
65073;SDS011;52218;51.224;-2.328;2023-02-12T18:09:10;3.22;;;2.70;;
65073;SDS011;52218;51.224;-2.328;2023-02-12T18:12:52;5.38;;;3.20;;
65073;SDS011;52218;51.224;-2.328;2023-02-12T18:16:34;4.53;;;3.22;;
65073;SDS011;52218;51.224;-2.328;2023-02-12T18:20:16;4.30;;;3.45;;
65073;SDS011;52218;51.224;-2.328;2023-02-12T18:23:58;4.20;;;3.60;;
65073;SDS011;52218;51.224;-2.328;2023-02-12T18:27:41;4.57;;;3.75;;
65073;SDS011;52218;51.224;-2.328;2023-02-12T18:31:23;3.88;;;3.47;;
65073;SDS011;52218;51.224;-2.328;2023-02-12T18:35:06;5.95;;;4.78;;
65073;SDS011;52218;51.224;-2.328;2023-02-12T18:38:49;5.57;;;4.63;;
65073;SDS011;52218;51.224;-2.328;2023-02-12T18:42:32;6.20;;;4.90;;
65073;SDS011;52218;51.224;-2.328;2023-02-12T18:46:15;5.97;;;4.53;;
65073;SDS011;52218;51.224;-2.328;2023-02-12T18:49:59;4.32;;;3.92;;
65073;SDS011;52218;51.224;-2.328;2023-02-12T18:53:41;7.32;;;4.20;;
65073;SDS011;52218;51.224;-2.328;2023-02-12T18:57:23;4.72;;;4.22;;
65073;SDS011;52218;51.224;-2.328;2023-02-12T19:04:55;5.00;;;4.40;;
65073;SDS011;52218;51.224;-2.328;2023-02-12T19:08:38;5.07;;;4.57;;
65073;SDS011;52218;51.224;-2.328;2023-02-12T19:12:20;4.82;;;4.32;;
65073;SDS011;52218;51.224;-2.328;2023-02-12T19:16:06;6.75;;;4.88;;
65073;SDS011;52218;51.224;-2.328;2023-02-12T19:19:55;5.70;;;5.13;;
65073;SDS011;52218;51.224;-2.328;2023-02-12T19:23:37;6.72;;;5.40;;
65073;SDS011;52218;51.224;-2.328;2023-02-12T19:27:19;6.38;;;5.30;;
65073;SDS011;52218;51.224;-2.328;2023-02-12T19:31:08;7.70;;;5.75;;
65073;SDS011;52218;51.224;-2.328;2023-02-12T19:34:54;7.70;;;5.75;;
65073;SDS011;52218;51.224;-2.328;2023-02-12T19:38:36;7.20;;;6.18;;
65073;SDS011;52218;51.224;-2.328;2023-02-12T19:42:18;8.55;;;6.45;;
65073;SDS011;52218;51.224;-2.328;2023-02-12T19:46:04;6.25;;;5.60;;
65073;SDS011;52218;51.224;-2.328;2023-02-12T19:49:51;6.22;;;5.10;;
65073;SDS011;52218;51.224;-2.328;2023-02-12T19:53:34;6.72;;;6.00;;
65073;SDS011;52218;51.224;-2.328;2023-02-12T19:57:16;6.93;;;5.57;;
65073;SDS011;52218;51.224;-2.328;2023-02-12T20:00:58;8.20;;;6.07;;
65073;SDS011;52218;51.224;-2.328;2023-02-12T20:04:40;7.65;;;6.35;;
65073;SDS011;52218;51.224;-2.328;2023-02-12T20:08:22;6.85;;;5.72;;
65073;SDS011;52218;51.224;-2.328;2023-02-12T20:12:04;5.13;;;4.63;;
65073;SDS011;52218;51.224;-2.328;2023-02-12T20:15:46;6.03;;;4.80;;
65073;SDS011;52218;51.224;-2.328;2023-02-12T20:19:29;5.30;;;4.80;;
65073;SDS011;52218;51.224;-2.328;2023-02-12T20:23:12;5.25;;;4.75;;
65073;SDS011;52218;51.224;-2.328;2023-02-12T20:26:54;5.63;;;4.65;;
65073;SDS011;52218;51.224;-2.328;2023-02-12T20:30:39;5.68;;;4.60;;
65073;SDS011;52218;51.224;-2.328;2023-02-12T20:34:24;5.90;;;5.30;;
65073;SDS011;52218;51.224;-2.328;2023-02-12T20:38:07;5.13;;;4.57;;
65073;SDS011;52218;51.224;-2.328;2023-02-12T20:41:49;5.70;;;4.88;;
65073;SDS011;52218;51.224;-2.328;2023-02-12T20:45:31;5.68;;;4.68;;
65073;SDS011;52218;51.224;-2.328;2023-02-12T20:49:15;5.05;;;4.47;;
65073;SDS011;52218;51.224;-2.328;2023-02-12T20:52:58;5.47;;;3.85;;
65073;SDS011;52218;51.224;-2.328;2023-02-12T20:56:40;5.53;;;4.13;;
65073;SDS011;52218;51.224;-2.328;2023-02-12T21:00:23;4.63;;;3.85;;
65073;SDS011;52218;51.224;-2.328;2023-02-12T21:04:10;5.97;;;4.38;;
65073;SDS011;52218;51.224;-2.328;2023-02-12T21:07:54;4.90;;;4.40;;
65073;SDS011;52218;51.224;-2.328;2023-02-12T21:11:36;5.95;;;4.93;;
65073;SDS011;52218;51.224;-2.328;2023-02-12T21:15:20;5.63;;;4.63;;
65073;SDS011;52218;51.224;-2.328;2023-02-12T21:19:02;6.10;;;4.85;;
65073;SDS011;52218;51.224;-2.328;2023-02-12T21:22:44;6.10;;;4.60;;
65073;SDS011;52218;51.224;-2.328;2023-02-12T21:26:27;6.80;;;4.97;;
65073;SDS011;52218;51.224;-2.328;2023-02-12T21:30:10;5.18;;;4.30;;
65073;SDS011;52218;51.224;-2.328;2023-02-12T21:33:53;4.85;;;4.35;;
65073;SDS011;52218;51.224;-2.328;2023-02-12T21:37:37;6.35;;;3.70;;
65073;SDS011;52218;51.224;-2.328;2023-02-12T21:45:15;5.15;;;4.18;;
65073;SDS011;52218;51.224;-2.328;2023-02-12T21:48:57;6.68;;;5.25;;
65073;SDS011;52218;51.224;-2.328;2023-02-12T21:52:39;5.55;;;4.22;;
65073;SDS011;52218;51.224;-2.328;2023-02-12T21:56:22;5.63;;;4.03;;
65073;SDS011;52218;51.224;-2.328;2023-02-12T22:00:04;5.03;;;4.22;;
65073;SDS011;52218;51.224;-2.328;2023-02-12T22:03:48;5.60;;;4.78;;
65073;SDS011;52218;51.224;-2.328;2023-02-12T22:07:31;5.63;;;4.63;;
65073;SDS011;52218;51.224;-2.328;2023-02-12T22:11:13;8.23;;;4.80;;
65073;SDS011;52218;51.224;-2.328;2023-02-12T22:14:55;5.95;;;4.50;;
65073;SDS011;52218;51.224;-2.328;2023-02-12T22:18:37;6.72;;;4.90;;
65073;SDS011;52218;51.224;-2.328;2023-02-12T22:22:20;5.55;;;4.82;;
65073;SDS011;52218;51.224;-2.328;2023-02-12T22:26:08;5.45;;;4.38;;
65073;SDS011;52218;51.224;-2.328;2023-02-12T22:29:50;5.40;;;4.50;;
65073;SDS011;52218;51.224;-2.328;2023-02-12T22:33:33;6.45;;;4.53;;
65073;SDS011;52218;51.224;-2.328;2023-02-12T22:37:15;6.00;;;4.53;;
65073;SDS011;52218;51.224;-2.328;2023-02-12T22:40:57;5.70;;;4.47;;
65073;SDS011;52218;51.224;-2.328;2023-02-12T22:44:39;6.28;;;4.35;;
65073;SDS011;52218;51.224;-2.328;2023-02-12T22:48:22;5.18;;;4.30;;
65073;SDS011;52218;51.224;-2.328;2023-02-12T22:52:04;5.13;;;4.20;;
65073;SDS011;52218;51.224;-2.328;2023-02-12T22:55:46;4.95;;;4.25;;
65073;SDS011;52218;51.224;-2.328;2023-02-12T22:59:28;6.28;;;4.38;;
65073;SDS011;52218;51.224;-2.328;2023-02-12T23:03:10;5.10;;;4.32;;
65073;SDS011;52218;51.224;-2.328;2023-02-12T23:06:52;5.60;;;4.72;;
65073;SDS011;52218;51.224;-2.328;2023-02-12T23:10:34;6.50;;;4.38;;
65073;SDS011;52218;51.224;-2.328;2023-02-12T23:14:16;6.30;;;4.28;;
65073;SDS011;52218;51.224;-2.328;2023-02-12T23:17:58;4.88;;;4.30;;
65073;SDS011;52218;51.224;-2.328;2023-02-12T23:21:40;5.97;;;4.20;;
65073;SDS011;52218;51.224;-2.328;2023-02-12T23:25:22;6.03;;;4.68;;
65073;SDS011;52218;51.224;-2.328;2023-02-12T23:29:04;6.53;;;4.60;;
65073;SDS011;52218;51.224;-2.328;2023-02-12T23:32:46;6.47;;;4.40;;
65073;SDS011;52218;51.224;-2.328;2023-02-12T23:36:28;6.03;;;4.28;;
65073;SDS011;52218;51.224;-2.328;2023-02-12T23:40:10;5.40;;;4.28;;
65073;SDS011;52218;51.224;-2.328;2023-02-12T23:43:53;6.10;;;4.45;;
65073;SDS011;52218;51.224;-2.328;2023-02-12T23:47:35;6.78;;;4.60;;
65073;SDS011;52218;51.224;-2.328;2023-02-12T23:51:17;5.47;;;4.22;;
65073;SDS011;52218;51.224;-2.328;2023-02-12T23:54:59;6.30;;;4.90;;
65073;SDS011;52218;51.224;-2.328;2023-02-12T23:58:41;6.07;;;4.97;;
